sensor_id;sensor_type;location;lat;lon;timestamp;P1;durP1;ratioP1;P2;durP2;ratioP2
69030;SDS011;56083;48.774;8.942;2022-10-26T00:02:24;10.70;;;4.13;;
69030;SDS011;56083;48.774;8.942;2022-10-26T00:04:50;13.15;;;4.05;;
69030;SDS011;56083;48.774;8.942;2022-10-26T00:07:15;11.75;;;4.30;;
69030;SDS011;56083;48.774;8.942;2022-10-26T00:09:41;8.32;;;4.03;;
69030;SDS011;56083;48.774;8.942;2022-10-26T00:12:07;19.70;;;4.57;;
69030;SDS011;56083;48.774;8.942;2022-10-26T00:14:32;13.50;;;4.20;;
69030;SDS011;56083;48.774;8.942;2022-10-26T00:16:58;13.35;;;4.18;;
69030;SDS011;56083;48.774;8.942;2022-10-26T00:19:24;13.77;;;4.28;;
69030;SDS011;56083;48.774;8.942;2022-10-26T00:21:50;8.52;;;3.85;;
69030;SDS011;56083;48.774;8.942;2022-10-26T00:24:16;11.85;;;4.18;;
69030;SDS011;56083;48.774;8.942;2022-10-26T00:26:42;11.93;;;3.92;;
69030;SDS011;56083;48.774;8.942;2022-10-26T00:29:08;9.10;;;3.88;;
69030;SDS011;56083;48.774;8.942;2022-10-26T00:31:37;12.77;;;4.20;;
69030;SDS011;56083;48.774;8.942;2022-10-26T00:34:03;9.23;;;4.05;;
69030;SDS011;56083;48.774;8.942;2022-10-26T00:36:29;11.52;;;4.43;;
69030;SDS011;56083;48.774;8.942;2022-10-26T00:38:55;13.82;;;4.05;;
69030;SDS011;56083;48.774;8.942;2022-10-26T00:41:22;9.15;;;4.30;;
69030;SDS011;56083;48.774;8.942;2022-10-26T00:43:50;12.68;;;4.97;;
69030;SDS011;56083;48.774;8.942;2022-10-26T00:46:38;13.10;;;4.57;;
69030;SDS011;56083;48.774;8.942;2022-10-26T00:49:13;10.93;;;4.70;;
69030;SDS011;56083;48.774;8.942;2022-10-26T00:51:53;11.88;;;4.65;;
69030;SDS011;56083;48.774;8.942;2022-10-26T00:54:18;12.20;;;4.40;;
69030;SDS011;56083;48.774;8.942;2022-10-26T00:56:46;9.73;;;4.38;;
69030;SDS011;56083;48.774;8.942;2022-10-26T00:59:15;9.77;;;4.72;;
69030;SDS011;56083;48.774;8.942;2022-10-26T01:01:42;12.43;;;4.38;;
69030;SDS011;56083;48.774;8.942;2022-10-26T01:04:11;10.55;;;4.50;;
69030;SDS011;56083;48.774;8.942;2022-10-26T01:06:37;15.45;;;4.70;;
69030;SDS011;56083;48.774;8.942;2022-10-26T01:09:05;14.05;;;4.68;;
69030;SDS011;56083;48.774;8.942;2022-10-26T01:11:30;11.35;;;4.50;;
69030;SDS011;56083;48.774;8.942;2022-10-26T01:13:56;12.52;;;4.90;;
69030;SDS011;56083;48.774;8.942;2022-10-26T01:27:47;9.93;;;4.78;;
69030;SDS011;56083;48.774;8.942;2022-10-26T01:35:53;14.75;;;5.20;;
69030;SDS011;56083;48.774;8.942;2022-10-26T01:44:29;9.18;;;4.88;;
69030;SDS011;56083;48.774;8.942;2022-10-26T01:47:00;8.95;;;4.95;;
69030;SDS011;56083;48.774;8.942;2022-10-26T01:49:29;12.30;;;5.25;;
69030;SDS011;56083;48.774;8.942;2022-10-26T01:51:58;19.13;;;5.35;;
69030;SDS011;56083;48.774;8.942;2022-10-26T01:54:24;17.20;;;6.18;;
69030;SDS011;56083;48.774;8.942;2022-10-26T01:56:50;15.40;;;6.15;;
69030;SDS011;56083;48.774;8.942;2022-10-26T02:10:09;19.60;;;6.30;;
69030;SDS011;56083;48.774;8.942;2022-10-26T02:18:30;17.88;;;6.80;;
69030;SDS011;56083;48.774;8.942;2022-10-26T02:21:06;14.38;;;6.95;;
69030;SDS011;56083;48.774;8.942;2022-10-26T02:23:37;14.82;;;7.15;;
69030;SDS011;56083;48.774;8.942;2022-10-26T02:26:07;24.92;;;7.40;;
69030;SDS011;56083;48.774;8.942;2022-10-26T02:28:36;20.35;;;7.55;;
69030;SDS011;56083;48.774;8.942;2022-10-26T02:31:06;20.40;;;7.90;;
69030;SDS011;56083;48.774;8.942;2022-10-26T02:33:34;16.08;;;7.65;;
69030;SDS011;56083;48.774;8.942;2022-10-26T02:36:05;19.90;;;8.95;;
69030;SDS011;56083;48.774;8.942;2022-10-26T02:38:33;18.73;;;8.63;;
69030;SDS011;56083;48.774;8.942;2022-10-26T02:41:01;16.73;;;8.10;;
69030;SDS011;56083;48.774;8.942;2022-10-26T02:43:28;17.42;;;8.57;;
69030;SDS011;56083;48.774;8.942;2022-10-26T02:45:58;20.27;;;9.18;;
69030;SDS011;56083;48.774;8.942;2022-10-26T02:48:30;21.98;;;8.60;;
69030;SDS011;56083;48.774;8.942;2022-10-26T02:53:26;15.75;;;7.85;;
69030;SDS011;56083;48.774;8.942;2022-10-26T02:55:53;19.10;;;8.07;;
69030;SDS011;56083;48.774;8.942;2022-10-26T02:58:24;16.00;;;8.23;;
69030;SDS011;56083;48.774;8.942;2022-10-26T03:00:52;17.15;;;8.38;;
69030;SDS011;56083;48.774;8.942;2022-10-26T03:03:18;20.08;;;8.57;;
69030;SDS011;56083;48.774;8.942;2022-10-26T03:05:45;21.52;;;8.77;;
69030;SDS011;56083;48.774;8.942;2022-10-26T03:08:10;19.58;;;8.88;;
69030;SDS011;56083;48.774;8.942;2022-10-26T03:10:39;24.60;;;8.30;;
69030;SDS011;56083;48.774;8.942;2022-10-26T03:13:07;17.33;;;8.05;;
69030;SDS011;56083;48.774;8.942;2022-10-26T03:15:33;21.42;;;8.65;;
69030;SDS011;56083;48.774;8.942;2022-10-26T03:17:59;21.30;;;8.23;;
69030;SDS011;56083;48.774;8.942;2022-10-26T03:20:24;19.02;;;8.07;;
69030;SDS011;56083;48.774;8.942;2022-10-26T03:22:50;31.25;;;9.57;;
69030;SDS011;56083;48.774;8.942;2022-10-26T03:25:16;17.27;;;8.52;;
69030;SDS011;56083;48.774;8.942;2022-10-26T03:27:41;16.33;;;8.93;;
69030;SDS011;56083;48.774;8.942;2022-10-26T03:30:08;19.80;;;9.40;;
69030;SDS011;56083;48.774;8.942;2022-10-26T03:32:34;21.60;;;10.52;;
69030;SDS011;56083;48.774;8.942;2022-10-26T03:35:00;22.88;;;9.57;;
69030;SDS011;56083;48.774;8.942;2022-10-26T03:37:26;19.20;;;10.00;;
69030;SDS011;56083;48.774;8.942;2022-10-26T03:39:51;22.20;;;10.93;;
69030;SDS011;56083;48.774;8.942;2022-10-26T03:42:17;16.40;;;9.20;;
69030;SDS011;56083;48.774;8.942;2022-10-26T03:44:43;25.00;;;11.05;;
69030;SDS011;56083;48.774;8.942;2022-10-26T03:47:08;28.65;;;14.20;;
69030;SDS011;56083;48.774;8.942;2022-10-26T03:49:34;34.20;;;16.20;;
69030;SDS011;56083;48.774;8.942;2022-10-26T03:52:00;31.65;;;13.82;;
69030;SDS011;56083;48.774;8.942;2022-10-26T03:54:26;16.05;;;8.68;;
69030;SDS011;56083;48.774;8.942;2022-10-26T03:56:51;24.00;;;10.15;;
69030;SDS011;56083;48.774;8.942;2022-10-26T03:59:17;16.45;;;7.78;;
69030;SDS011;56083;48.774;8.942;2022-10-26T04:01:43;15.68;;;7.38;;
69030;SDS011;56083;48.774;8.942;2022-10-26T04:04:08;18.88;;;7.88;;
69030;SDS011;56083;48.774;8.942;2022-10-26T04:06:34;13.70;;;7.03;;
69030;SDS011;56083;48.774;8.942;2022-10-26T04:09:00;21.85;;;6.35;;
69030;SDS011;56083;48.774;8.942;2022-10-26T04:11:29;17.45;;;6.63;;
69030;SDS011;56083;48.774;8.942;2022-10-26T04:13:55;19.17;;;5.50;;
69030;SDS011;56083;48.774;8.942;2022-10-26T04:16:23;16.02;;;5.97;;
69030;SDS011;56083;48.774;8.942;2022-10-26T04:18:49;14.32;;;5.20;;
69030;SDS011;56083;48.774;8.942;2022-10-26T04:21:15;19.90;;;5.93;;
69030;SDS011;56083;48.774;8.942;2022-10-26T04:23:40;17.20;;;5.35;;
69030;SDS011;56083;48.774;8.942;2022-10-26T04:26:06;12.63;;;5.63;;
69030;SDS011;56083;48.774;8.942;2022-10-26T04:28:32;16.63;;;5.63;;
69030;SDS011;56083;48.774;8.942;2022-10-26T04:30:58;15.02;;;6.13;;
69030;SDS011;56083;48.774;8.942;2022-10-26T04:33:23;16.92;;;5.50;;
69030;SDS011;56083;48.774;8.942;2022-10-26T04:35:49;16.38;;;6.25;;
69030;SDS011;56083;48.774;8.942;2022-10-26T04:38:15;18.10;;;5.50;;
69030;SDS011;56083;48.774;8.942;2022-10-26T04:40:40;16.30;;;4.78;;
69030;SDS011;56083;48.774;8.942;2022-10-26T04:43:06;10.70;;;4.35;;
69030;SDS011;56083;48.774;8.942;2022-10-26T04:45:31;10.82;;;4.07;;
69030;SDS011;56083;48.774;8.942;2022-10-26T04:48:04;16.70;;;4.47;;
69030;SDS011;56083;48.774;8.942;2022-10-26T04:50:31;10.48;;;3.33;;
69030;SDS011;56083;48.774;8.942;2022-10-26T04:52:57;12.80;;;3.45;;
69030;SDS011;56083;48.774;8.942;2022-10-26T04:55:23;10.35;;;3.53;;
69030;SDS011;56083;48.774;8.942;2022-10-26T04:57:49;12.13;;;3.17;;
69030;SDS011;56083;48.774;8.942;2022-10-26T05:00:14;7.35;;;2.58;;
69030;SDS011;56083;48.774;8.942;2022-10-26T05:02:40;12.38;;;2.80;;
69030;SDS011;56083;48.774;8.942;2022-10-26T05:05:06;8.30;;;2.60;;
69030;SDS011;56083;48.774;8.942;2022-10-26T05:07:32;13.50;;;3.10;;
69030;SDS011;56083;48.774;8.942;2022-10-26T05:09:58;8.10;;;2.83;;
69030;SDS011;56083;48.774;8.942;2022-10-26T05:12:23;7.68;;;2.30;;
69030;SDS011;56083;48.774;8.942;2022-10-26T05:14:49;7.85;;;2.90;;
69030;SDS011;56083;48.774;8.942;2022-10-26T05:17:14;8.38;;;2.47;;
69030;SDS011;56083;48.774;8.942;2022-10-26T05:19:40;9.93;;;2.78;;
69030;SDS011;56083;48.774;8.942;2022-10-26T05:22:06;8.88;;;2.80;;
69030;SDS011;56083;48.774;8.942;2022-10-26T05:24:31;11.32;;;3.20;;
69030;SDS011;56083;48.774;8.942;2022-10-26T05:26:57;9.10;;;3.10;;
69030;SDS011;56083;48.774;8.942;2022-10-26T05:29:22;13.18;;;3.10;;
69030;SDS011;56083;48.774;8.942;2022-10-26T05:31:48;9.38;;;3.13;;
69030;SDS011;56083;48.774;8.942;2022-10-26T05:34:14;9.63;;;3.05;;
69030;SDS011;56083;48.774;8.942;2022-10-26T05:36:39;7.03;;;3.22;;
69030;SDS011;56083;48.774;8.942;2022-10-26T05:39:05;14.27;;;3.67;;
69030;SDS011;56083;48.774;8.942;2022-10-26T05:41:30;7.90;;;3.35;;
69030;SDS011;56083;48.774;8.942;2022-10-26T05:43:56;9.30;;;3.20;;
69030;SDS011;56083;48.774;8.942;2022-10-26T05:46:22;12.73;;;3.60;;
69030;SDS011;56083;48.774;8.942;2022-10-26T05:48:47;6.90;;;3.25;;
69030;SDS011;56083;48.774;8.942;2022-10-26T05:51:13;12.93;;;3.55;;
69030;SDS011;56083;48.774;8.942;2022-10-26T05:53:40;8.68;;;3.22;;
69030;SDS011;56083;48.774;8.942;2022-10-26T05:56:14;12.20;;;3.28;;
69030;SDS011;56083;48.774;8.942;2022-10-26T05:58:48;8.93;;;3.30;;
69030;SDS011;56083;48.774;8.942;2022-10-26T06:06:26;8.98;;;3.42;;
69030;SDS011;56083;48.774;8.942;2022-10-26T06:09:00;8.40;;;3.38;;
69030;SDS011;56083;48.774;8.942;2022-10-26T06:11:26;7.35;;;3.00;;
69030;SDS011;56083;48.774;8.942;2022-10-26T06:13:52;8.60;;;3.25;;
69030;SDS011;56083;48.774;8.942;2022-10-26T06:24:20;8.73;;;2.20;;
69030;SDS011;56083;48.774;8.942;2022-10-26T06:27:01;6.78;;;2.63;;
69030;SDS011;56083;48.774;8.942;2022-10-26T06:29:43;8.70;;;2.22;;
69030;SDS011;56083;48.774;8.942;2022-10-26T06:32:19;10.27;;;2.40;;
69030;SDS011;56083;48.774;8.942;2022-10-26T06:34:48;10.00;;;2.40;;
69030;SDS011;56083;48.774;8.942;2022-10-26T06:37:15;17.73;;;2.35;;
69030;SDS011;56083;48.774;8.942;2022-10-26T06:39:43;8.00;;;1.98;;
69030;SDS011;56083;48.774;8.942;2022-10-26T06:42:11;8.85;;;2.53;;
69030;SDS011;56083;48.774;8.942;2022-10-26T06:44:37;7.85;;;2.33;;
69030;SDS011;56083;48.774;8.942;2022-10-26T06:47:23;8.40;;;2.00;;
69030;SDS011;56083;48.774;8.942;2022-10-26T06:50:01;8.35;;;2.25;;
69030;SDS011;56083;48.774;8.942;2022-10-26T06:52:39;12.07;;;2.20;;
69030;SDS011;56083;48.774;8.942;2022-10-26T06:55:14;7.53;;;2.28;;
69030;SDS011;56083;48.774;8.942;2022-10-26T06:57:41;7.82;;;2.03;;
69030;SDS011;56083;48.774;8.942;2022-10-26T07:02:43;6.97;;;2.08;;
69030;SDS011;56083;48.774;8.942;2022-10-26T07:05:09;5.65;;;2.15;;
69030;SDS011;56083;48.774;8.942;2022-10-26T07:07:40;8.13;;;2.20;;
69030;SDS011;56083;48.774;8.942;2022-10-26T07:10:08;7.40;;;2.15;;
69030;SDS011;56083;48.774;8.942;2022-10-26T07:12:35;6.95;;;2.10;;
69030;SDS011;56083;48.774;8.942;2022-10-26T07:15:01;14.00;;;2.20;;
69030;SDS011;56083;48.774;8.942;2022-10-26T07:17:27;14.63;;;2.83;;
69030;SDS011;56083;48.774;8.942;2022-10-26T07:19:54;9.48;;;2.30;;
69030;SDS011;56083;48.774;8.942;2022-10-26T07:22:20;12.15;;;2.35;;
69030;SDS011;56083;48.774;8.942;2022-10-26T07:24:46;13.73;;;2.40;;
69030;SDS011;56083;48.774;8.942;2022-10-26T07:27:15;5.65;;;2.30;;
69030;SDS011;56083;48.774;8.942;2022-10-26T07:29:43;8.93;;;2.10;;
69030;SDS011;56083;48.774;8.942;2022-10-26T07:32:09;9.10;;;2.40;;
69030;SDS011;56083;48.774;8.942;2022-10-26T07:34:35;8.65;;;2.10;;
69030;SDS011;56083;48.774;8.942;2022-10-26T07:37:01;7.80;;;2.13;;
69030;SDS011;56083;48.774;8.942;2022-10-26T07:39:26;9.38;;;2.20;;
69030;SDS011;56083;48.774;8.942;2022-10-26T07:41:52;11.73;;;2.42;;
69030;SDS011;56083;48.774;8.942;2022-10-26T07:44:18;7.13;;;2.00;;
69030;SDS011;56083;48.774;8.942;2022-10-26T07:46:44;8.55;;;2.35;;
69030;SDS011;56083;48.774;8.942;2022-10-26T07:49:09;11.07;;;2.85;;
69030;SDS011;56083;48.774;8.942;2022-10-26T07:51:35;6.30;;;2.22;;
69030;SDS011;56083;48.774;8.942;2022-10-26T07:54:01;14.90;;;3.10;;
69030;SDS011;56083;48.774;8.942;2022-10-26T07:56:27;9.70;;;2.88;;
69030;SDS011;56083;48.774;8.942;2022-10-26T07:58:53;12.25;;;2.97;;
69030;SDS011;56083;48.774;8.942;2022-10-26T08:01:19;12.77;;;2.75;;
69030;SDS011;56083;48.774;8.942;2022-10-26T08:03:44;8.55;;;2.30;;
69030;SDS011;56083;48.774;8.942;2022-10-26T08:06:10;8.82;;;1.98;;
69030;SDS011;56083;48.774;8.942;2022-10-26T08:08:37;10.10;;;2.45;;
69030;SDS011;56083;48.774;8.942;2022-10-26T08:11:03;9.13;;;2.33;;
69030;SDS011;56083;48.774;8.942;2022-10-26T08:13:29;6.93;;;2.00;;
69030;SDS011;56083;48.774;8.942;2022-10-26T08:15:59;9.35;;;2.20;;
69030;SDS011;56083;48.774;8.942;2022-10-26T08:18:27;6.88;;;2.33;;
69030;SDS011;56083;48.774;8.942;2022-10-26T08:20:52;4.63;;;1.75;;
69030;SDS011;56083;48.774;8.942;2022-10-26T08:23:18;6.63;;;2.20;;
69030;SDS011;56083;48.774;8.942;2022-10-26T08:25:44;8.90;;;2.22;;
69030;SDS011;56083;48.774;8.942;2022-10-26T08:28:10;14.10;;;2.47;;
69030;SDS011;56083;48.774;8.942;2022-10-26T08:30:36;9.73;;;2.10;;
69030;SDS011;56083;48.774;8.942;2022-10-26T08:33:02;7.53;;;2.13;;
69030;SDS011;56083;48.774;8.942;2022-10-26T08:35:30;10.98;;;2.20;;
69030;SDS011;56083;48.774;8.942;2022-10-26T08:37:56;8.07;;;2.25;;
69030;SDS011;56083;48.774;8.942;2022-10-26T08:40:33;14.80;;;2.25;;
69030;SDS011;56083;48.774;8.942;2022-10-26T08:43:04;12.48;;;2.10;;
69030;SDS011;56083;48.774;8.942;2022-10-26T08:49:39;8.38;;;2.20;;
69030;SDS011;56083;48.774;8.942;2022-10-26T08:52:10;13.50;;;2.35;;
69030;SDS011;56083;48.774;8.942;2022-10-26T08:54:41;7.55;;;2.22;;
69030;SDS011;56083;48.774;8.942;2022-10-26T09:00:06;8.05;;;2.45;;
69030;SDS011;56083;48.774;8.942;2022-10-26T09:02:36;8.48;;;2.13;;
69030;SDS011;56083;48.774;8.942;2022-10-26T09:05:02;7.45;;;2.03;;
69030;SDS011;56083;48.774;8.942;2022-10-26T09:07:35;10.57;;;2.13;;
69030;SDS011;56083;48.774;8.942;2022-10-26T09:10:23;18.23;;;2.65;;
69030;SDS011;56083;48.774;8.942;2022-10-26T09:13:14;11.77;;;2.30;;
69030;SDS011;56083;48.774;8.942;2022-10-26T09:18:30;10.05;;;2.38;;
69030;SDS011;56083;48.774;8.942;2022-10-26T09:21:19;9.75;;;2.08;;
69030;SDS011;56083;48.774;8.942;2022-10-26T09:24:12;9.88;;;2.08;;
69030;SDS011;56083;48.774;8.942;2022-10-26T09:26:51;5.88;;;1.98;;
69030;SDS011;56083;48.774;8.942;2022-10-26T09:29:40;8.48;;;2.00;;
69030;SDS011;56083;48.774;8.942;2022-10-26T09:32:13;9.70;;;2.00;;
69030;SDS011;56083;48.774;8.942;2022-10-26T09:34:42;11.00;;;1.92;;
69030;SDS011;56083;48.774;8.942;2022-10-26T09:37:22;7.38;;;1.90;;
69030;SDS011;56083;48.774;8.942;2022-10-26T09:40:18;10.77;;;1.92;;
69030;SDS011;56083;48.774;8.942;2022-10-26T09:42:50;13.13;;;2.50;;
69030;SDS011;56083;48.774;8.942;2022-10-26T09:45:34;16.60;;;2.38;;
69030;SDS011;56083;48.774;8.942;2022-10-26T09:50:46;12.70;;;2.30;;
69030;SDS011;56083;48.774;8.942;2022-10-26T09:53:13;13.02;;;2.58;;
69030;SDS011;56083;48.774;8.942;2022-10-26T09:55:40;10.68;;;2.60;;
69030;SDS011;56083;48.774;8.942;2022-10-26T09:58:13;10.82;;;2.17;;
69030;SDS011;56083;48.774;8.942;2022-10-26T10:00:45;16.80;;;2.20;;
69030;SDS011;56083;48.774;8.942;2022-10-26T10:03:23;10.65;;;2.40;;
69030;SDS011;56083;48.774;8.942;2022-10-26T10:05:51;9.88;;;2.25;;
69030;SDS011;56083;48.774;8.942;2022-10-26T10:10:58;11.45;;;1.92;;
69030;SDS011;56083;48.774;8.942;2022-10-26T10:13:31;13.52;;;1.88;;
69030;SDS011;56083;48.774;8.942;2022-10-26T10:18:31;6.25;;;2.03;;
69030;SDS011;56083;48.774;8.942;2022-10-26T10:20:57;7.85;;;2.00;;
69030;SDS011;56083;48.774;8.942;2022-10-26T10:23:25;10.18;;;1.83;;
69030;SDS011;56083;48.774;8.942;2022-10-26T10:28:26;9.20;;;2.22;;
69030;SDS011;56083;48.774;8.942;2022-10-26T10:30:54;9.52;;;2.40;;
69030;SDS011;56083;48.774;8.942;2022-10-26T10:33:30;10.55;;;2.25;;
69030;SDS011;56083;48.774;8.942;2022-10-26T10:36:01;9.57;;;2.00;;
69030;SDS011;56083;48.774;8.942;2022-10-26T10:38:34;13.15;;;2.25;;
69030;SDS011;56083;48.774;8.942;2022-10-26T10:41:02;6.63;;;2.10;;
69030;SDS011;56083;48.774;8.942;2022-10-26T10:43:29;7.93;;;1.73;;
69030;SDS011;56083;48.774;8.942;2022-10-26T10:45:55;8.00;;;1.83;;
69030;SDS011;56083;48.774;8.942;2022-10-26T10:48:29;8.98;;;1.70;;
69030;SDS011;56083;48.774;8.942;2022-10-26T10:51:01;10.82;;;2.05;;
69030;SDS011;56083;48.774;8.942;2022-10-26T10:53:45;10.35;;;2.30;;
69030;SDS011;56083;48.774;8.942;2022-10-26T10:59:01;9.13;;;2.13;;
69030;SDS011;56083;48.774;8.942;2022-10-26T11:01:37;9.23;;;2.10;;
69030;SDS011;56083;48.774;8.942;2022-10-26T11:04:10;6.10;;;1.67;;
69030;SDS011;56083;48.774;8.942;2022-10-26T11:06:58;11.40;;;2.50;;
69030;SDS011;56083;48.774;8.942;2022-10-26T11:09:27;8.05;;;1.90;;
69030;SDS011;56083;48.774;8.942;2022-10-26T11:14:53;9.15;;;2.05;;
69030;SDS011;56083;48.774;8.942;2022-10-26T11:17:29;10.65;;;2.10;;
69030;SDS011;56083;48.774;8.942;2022-10-26T11:20:19;13.40;;;2.13;;
69030;SDS011;56083;48.774;8.942;2022-10-26T11:25:29;5.78;;;1.88;;
69030;SDS011;56083;48.774;8.942;2022-10-26T11:28:14;12.18;;;2.15;;
69030;SDS011;56083;48.774;8.942;2022-10-26T11:30:43;11.07;;;2.00;;
69030;SDS011;56083;48.774;8.942;2022-10-26T11:33:18;11.57;;;2.00;;
69030;SDS011;56083;48.774;8.942;2022-10-26T11:36:09;8.52;;;1.90;;
69030;SDS011;56083;48.774;8.942;2022-10-26T11:47:06;11.70;;;2.00;;
69030;SDS011;56083;48.774;8.942;2022-10-26T11:49:51;12.65;;;2.50;;
69030;SDS011;56083;48.774;8.942;2022-10-26T11:52:33;14.03;;;2.43;;
69030;SDS011;56083;48.774;8.942;2022-10-26T11:55:07;7.05;;;1.90;;
69030;SDS011;56083;48.774;8.942;2022-10-26T11:57:34;12.45;;;1.90;;
69030;SDS011;56083;48.774;8.942;2022-10-26T12:00:13;10.45;;;1.90;;
69030;SDS011;56083;48.774;8.942;2022-10-26T12:02:42;8.35;;;1.90;;
69030;SDS011;56083;48.774;8.942;2022-10-26T12:08:05;8.48;;;1.90;;
69030;SDS011;56083;48.774;8.942;2022-10-26T12:11:18;9.52;;;1.80;;
69030;SDS011;56083;48.774;8.942;2022-10-26T12:14:17;9.15;;;1.88;;
69030;SDS011;56083;48.774;8.942;2022-10-26T12:17:05;8.90;;;1.73;;
69030;SDS011;56083;48.774;8.942;2022-10-26T12:19:48;7.15;;;1.88;;
69030;SDS011;56083;48.774;8.942;2022-10-26T12:22:50;9.88;;;2.22;;
69030;SDS011;56083;48.774;8.942;2022-10-26T12:25:19;9.40;;;2.00;;
69030;SDS011;56083;48.774;8.942;2022-10-26T12:37:55;8.15;;;1.98;;
69030;SDS011;56083;48.774;8.942;2022-10-26T12:40:41;9.02;;;2.00;;
69030;SDS011;56083;48.774;8.942;2022-10-26T12:45:46;11.23;;;1.90;;
69030;SDS011;56083;48.774;8.942;2022-10-26T12:48:47;7.50;;;1.83;;
69030;SDS011;56083;48.774;8.942;2022-10-26T12:53:55;11.63;;;2.15;;
69030;SDS011;56083;48.774;8.942;2022-10-26T12:56:28;14.75;;;2.10;;
69030;SDS011;56083;48.774;8.942;2022-10-26T13:01:49;10.27;;;1.85;;
69030;SDS011;56083;48.774;8.942;2022-10-26T13:07:09;10.35;;;2.15;;
69030;SDS011;56083;48.774;8.942;2022-10-26T13:09:49;12.60;;;1.95;;
69030;SDS011;56083;48.774;8.942;2022-10-26T13:12:25;9.93;;;2.13;;
69030;SDS011;56083;48.774;8.942;2022-10-26T13:14:58;8.70;;;1.50;;
69030;SDS011;56083;48.774;8.942;2022-10-26T13:17:27;13.90;;;2.33;;
69030;SDS011;56083;48.774;8.942;2022-10-26T13:19:59;12.07;;;2.10;;
69030;SDS011;56083;48.774;8.942;2022-10-26T13:22:28;11.25;;;2.38;;
69030;SDS011;56083;48.774;8.942;2022-10-26T13:24:56;16.25;;;2.03;;
69030;SDS011;56083;48.774;8.942;2022-10-26T13:32:32;7.03;;;1.42;;
69030;SDS011;56083;48.774;8.942;2022-10-26T13:34:58;11.23;;;2.30;;
69030;SDS011;56083;48.774;8.942;2022-10-26T13:37:26;8.88;;;1.70;;
69030;SDS011;56083;48.774;8.942;2022-10-26T13:39:55;9.30;;;1.85;;
69030;SDS011;56083;48.774;8.942;2022-10-26T13:42:27;6.57;;;1.75;;
69030;SDS011;56083;48.774;8.942;2022-10-26T13:45:14;9.77;;;1.80;;
69030;SDS011;56083;48.774;8.942;2022-10-26T13:47:44;9.80;;;1.50;;
69030;SDS011;56083;48.774;8.942;2022-10-26T13:50:21;11.13;;;2.15;;
69030;SDS011;56083;48.774;8.942;2022-10-26T13:52:51;7.90;;;1.70;;
69030;SDS011;56083;48.774;8.942;2022-10-26T13:55:30;10.85;;;2.22;;
69030;SDS011;56083;48.774;8.942;2022-10-26T13:58:13;9.73;;;2.10;;
69030;SDS011;56083;48.774;8.942;2022-10-26T14:01:02;6.13;;;1.98;;
69030;SDS011;56083;48.774;8.942;2022-10-26T14:03:38;9.70;;;1.98;;
69030;SDS011;56083;48.774;8.942;2022-10-26T14:08:39;5.57;;;1.70;;
69030;SDS011;56083;48.774;8.942;2022-10-26T14:11:09;9.23;;;2.00;;
69030;SDS011;56083;48.774;8.942;2022-10-26T14:13:38;6.03;;;1.60;;
69030;SDS011;56083;48.774;8.942;2022-10-26T14:16:08;8.60;;;1.80;;
69030;SDS011;56083;48.774;8.942;2022-10-26T14:18:34;10.05;;;2.10;;
69030;SDS011;56083;48.774;8.942;2022-10-26T14:21:03;8.68;;;1.90;;
69030;SDS011;56083;48.774;8.942;2022-10-26T14:23:35;6.65;;;2.00;;
69030;SDS011;56083;48.774;8.942;2022-10-26T14:26:21;5.78;;;1.20;;
69030;SDS011;56083;48.774;8.942;2022-10-26T14:28:59;6.35;;;1.73;;
69030;SDS011;56083;48.774;8.942;2022-10-26T14:31:32;4.63;;;1.35;;
69030;SDS011;56083;48.774;8.942;2022-10-26T14:34:00;7.97;;;1.65;;
69030;SDS011;56083;48.774;8.942;2022-10-26T14:36:32;6.22;;;1.33;;
69030;SDS011;56083;48.774;8.942;2022-10-26T14:39:23;10.77;;;1.50;;
69030;SDS011;56083;48.774;8.942;2022-10-26T14:42:26;10.20;;;1.83;;
69030;SDS011;56083;48.774;8.942;2022-10-26T14:44:53;9.82;;;1.60;;
69030;SDS011;56083;48.774;8.942;2022-10-26T14:47:27;7.20;;;1.88;;
69030;SDS011;56083;48.774;8.942;2022-10-26T14:49:57;8.63;;;1.80;;
69030;SDS011;56083;48.774;8.942;2022-10-26T14:52:31;5.72;;;1.73;;
69030;SDS011;56083;48.774;8.942;2022-10-26T14:55:02;8.63;;;1.95;;
69030;SDS011;56083;48.774;8.942;2022-10-26T14:57:37;7.57;;;1.77;;
69030;SDS011;56083;48.774;8.942;2022-10-26T15:00:12;12.77;;;2.20;;
69030;SDS011;56083;48.774;8.942;2022-10-26T15:02:55;12.55;;;1.98;;
69030;SDS011;56083;48.774;8.942;2022-10-26T15:07:48;9.27;;;2.10;;
69030;SDS011;56083;48.774;8.942;2022-10-26T15:13:06;30.48;;;2.35;;
69030;SDS011;56083;48.774;8.942;2022-10-26T15:15:35;9.38;;;2.22;;
69030;SDS011;56083;48.774;8.942;2022-10-26T15:18:02;5.63;;;2.00;;
69030;SDS011;56083;48.774;8.942;2022-10-26T15:20:29;6.20;;;1.88;;
69030;SDS011;56083;48.774;8.942;2022-10-26T15:23:00;12.52;;;2.05;;
69030;SDS011;56083;48.774;8.942;2022-10-26T15:25:27;14.88;;;2.10;;
69030;SDS011;56083;48.774;8.942;2022-10-26T15:28:10;12.45;;;2.42;;
69030;SDS011;56083;48.774;8.942;2022-10-26T15:36:16;13.20;;;2.20;;
69030;SDS011;56083;48.774;8.942;2022-10-26T15:38:43;7.40;;;2.10;;
69030;SDS011;56083;48.774;8.942;2022-10-26T15:41:26;8.02;;;2.42;;
69030;SDS011;56083;48.774;8.942;2022-10-26T15:43:55;10.02;;;2.28;;
69030;SDS011;56083;48.774;8.942;2022-10-26T15:46:22;12.40;;;2.38;;
69030;SDS011;56083;48.774;8.942;2022-10-26T15:48:52;8.27;;;2.20;;
69030;SDS011;56083;48.774;8.942;2022-10-26T15:51:22;8.95;;;2.15;;
69030;SDS011;56083;48.774;8.942;2022-10-26T15:53:48;10.82;;;2.17;;
69030;SDS011;56083;48.774;8.942;2022-10-26T15:56:15;10.50;;;2.47;;
69030;SDS011;56083;48.774;8.942;2022-10-26T15:58:47;11.38;;;2.22;;
69030;SDS011;56083;48.774;8.942;2022-10-26T16:01:17;8.13;;;2.40;;
69030;SDS011;56083;48.774;8.942;2022-10-26T16:03:44;14.88;;;4.88;;
69030;SDS011;56083;48.774;8.942;2022-10-26T16:06:29;18.90;;;7.00;;
69030;SDS011;56083;48.774;8.942;2022-10-26T16:08:57;24.90;;;7.95;;
69030;SDS011;56083;48.774;8.942;2022-10-26T16:11:25;16.02;;;5.88;;
69030;SDS011;56083;48.774;8.942;2022-10-26T16:13:51;17.67;;;5.65;;
69030;SDS011;56083;48.774;8.942;2022-10-26T16:16:17;10.90;;;4.63;;
69030;SDS011;56083;48.774;8.942;2022-10-26T16:18:44;16.00;;;3.38;;
69030;SDS011;56083;48.774;8.942;2022-10-26T16:21:14;11.75;;;2.97;;
69030;SDS011;56083;48.774;8.942;2022-10-26T16:23:41;12.13;;;2.95;;
69030;SDS011;56083;48.774;8.942;2022-10-26T16:26:09;13.65;;;3.13;;
69030;SDS011;56083;48.774;8.942;2022-10-26T16:28:35;19.55;;;3.38;;
69030;SDS011;56083;48.774;8.942;2022-10-26T16:31:06;11.27;;;3.08;;
69030;SDS011;56083;48.774;8.942;2022-10-26T16:33:34;18.73;;;3.17;;
69030;SDS011;56083;48.774;8.942;2022-10-26T16:36:00;103.43;;;14.18;;
69030;SDS011;56083;48.774;8.942;2022-10-26T16:38:26;14.70;;;3.83;;
69030;SDS011;56083;48.774;8.942;2022-10-26T16:41:11;12.60;;;3.33;;
69030;SDS011;56083;48.774;8.942;2022-10-26T16:43:39;12.75;;;2.55;;
69030;SDS011;56083;48.774;8.942;2022-10-26T16:46:07;10.07;;;2.63;;
69030;SDS011;56083;48.774;8.942;2022-10-26T16:48:41;10.07;;;2.67;;
69030;SDS011;56083;48.774;8.942;2022-10-26T16:51:11;11.52;;;2.70;;
69030;SDS011;56083;48.774;8.942;2022-10-26T16:53:40;11.23;;;3.08;;
69030;SDS011;56083;48.774;8.942;2022-10-26T16:56:07;18.45;;;2.45;;
69030;SDS011;56083;48.774;8.942;2022-10-26T16:58:35;12.98;;;3.55;;
69030;SDS011;56083;48.774;8.942;2022-10-26T17:01:01;11.85;;;3.85;;
69030;SDS011;56083;48.774;8.942;2022-10-26T17:03:28;18.73;;;4.20;;
69030;SDS011;56083;48.774;8.942;2022-10-26T17:05:58;19.60;;;4.93;;
69030;SDS011;56083;48.774;8.942;2022-10-26T17:08:26;11.95;;;4.80;;
69030;SDS011;56083;48.774;8.942;2022-10-26T17:10:53;18.40;;;5.15;;
69030;SDS011;56083;48.774;8.942;2022-10-26T17:13:19;22.55;;;4.07;;
69030;SDS011;56083;48.774;8.942;2022-10-26T17:15:45;17.13;;;3.88;;
69030;SDS011;56083;48.774;8.942;2022-10-26T17:18:11;15.82;;;3.33;;